Time;durP1;ratioP1;P1;durP2;ratioP2;P2;SDS_P1;SDS_P2;PMS_P1;PMS_P2;Temp;Humidity;BMP_temperature;BMP_pressure;BME280_temperature;BME280_humidity;BME280_pressure;Samples;Min_cycle;Max_cycle;Signal;HPM_P1;HPM_P2
2021/09/07 00:01:51;;;;;;;10.40;8.60;;;17.00;99.90;;;;;;4992738;28;20508;-60
2021/09/07 00:04:19;;;;;;;13.57;7.80;;;17.00;99.90;;;;;;4992971;28;20453;-60
2021/09/07 00:06:47;;;;;;;9.90;8.37;;;17.00;99.90;;;;;;4992590;28;20454;-60
2021/09/07 00:09:14;;;;;;;9.43;7.40;;;16.90;99.90;;;;;;4992473;28;20544;-61
2021/09/07 00:11:41;;;;;;;8.80;7.57;;;16.90;99.90;;;;;;4992275;28;20512;-60
2021/09/07 00:14:08;;;;;;;11.23;8.53;;;16.90;99.90;;;;;;4992476;28;20451;-60
2021/09/07 00:16:35;;;;;;;10.30;8.53;;;16.80;99.90;;;;;;4992925;28;20446;-60
2021/09/07 00:19:02;;;;;;;10.00;8.57;;;16.80;99.90;;;;;;4991941;28;20504;-60
2021/09/07 00:21:29;;;;;;;10.60;8.30;;;16.70;99.90;;;;;;4992122;28;20446;-60
2021/09/07 00:23:57;;;;;;;11.60;8.37;;;16.70;99.90;;;;;;4992177;28;20832;-60
2021/09/07 00:26:24;;;;;;;11.70;9.20;;;16.60;99.90;;;;;;4992848;28;20450;-60
2021/09/07 00:28:51;;;;;;;12.53;8.83;;;16.60;99.90;;;;;;4992115;28;20870;-60
2021/09/07 00:31:18;;;;;;;12.83;9.27;;;16.60;99.90;;;;;;4992236;28;20894;-60
2021/09/07 00:33:45;;;;;;;13.50;9.13;;;16.60;99.90;;;;;;4992188;28;20458;-60
2021/09/07 00:36:12;;;;;;;10.80;8.30;;;16.60;99.90;;;;;;4992518;28;20450;-60
2021/09/07 00:38:39;;;;;;;12.20;8.37;;;16.60;99.90;;;;;;4992161;28;20450;-61
2021/09/07 00:41:07;;;;;;;10.40;8.27;;;16.60;99.90;;;;;;4992332;28;20462;-60
2021/09/07 00:43:34;;;;;;;9.80;8.10;;;16.60;99.90;;;;;;4992510;28;20496;-60
2021/09/07 00:46:01;;;;;;;12.17;8.10;;;16.60;99.90;;;;;;4991849;28;20509;-61
2021/09/07 00:48:28;;;;;;;11.53;8.60;;;16.60;99.90;;;;;;4992191;28;20454;-60
2021/09/07 00:50:55;;;;;;;10.00;8.10;;;16.50;99.90;;;;;;4991682;28;20486;-60
2021/09/07 00:53:22;;;;;;;10.53;7.67;;;16.50;99.90;;;;;;4992206;28;20446;-60
2021/09/07 00:55:51;;;;;;;8.77;7.87;;;16.50;99.90;;;;;;4992100;28;20912;-60
2021/09/07 00:58:21;;;;;;;11.00;8.47;;;16.50;99.90;;;;;;4992451;28;20458;-60
2021/09/07 01:00:48;;;;;;;9.50;8.10;;;16.50;99.90;;;;;;4994577;28;20466;-60
2021/09/07 01:03:14;;;;;;;12.20;9.10;;;16.50;99.90;;;;;;4996336;28;20937;-60
2021/09/07 01:05:43;;;;;;;11.57;8.93;;;16.50;99.90;;;;;;4995836;28;20528;-60
2021/09/07 01:08:11;;;;;;;11.73;8.43;;;16.40;99.90;;;;;;4996158;28;20462;-60
2021/09/07 01:10:38;;;;;;;9.17;7.87;;;16.40;99.90;;;;;;4995800;28;20486;-61
2021/09/07 01:13:05;;;;;;;11.07;8.53;;;16.40;99.90;;;;;;4995322;28;20458;-60
2021/09/07 01:15:33;;;;;;;11.50;8.50;;;16.30;99.90;;;;;;4995880;28;20510;-60
2021/09/07 01:18:00;;;;;;;11.90;8.53;;;16.40;99.90;;;;;;4996056;28;20948;-60
2021/09/07 01:20:27;;;;;;;10.90;8.40;;;16.30;99.90;;;;;;4995230;28;20533;-60
2021/09/07 01:22:54;;;;;;;11.57;8.97;;;16.30;99.90;;;;;;4995718;28;20454;-60
2021/09/07 01:25:22;;;;;;;10.07;8.90;;;16.20;99.90;;;;;;4996038;28;20874;-60
2021/09/07 01:27:49;;;;;;;10.23;8.83;;;16.10;99.90;;;;;;4995943;28;20500;-60
2021/09/07 01:30:16;;;;;;;12.27;8.97;;;16.10;99.90;;;;;;4994883;28;20493;-60
2021/09/07 01:32:43;;;;;;;12.90;8.60;;;16.20;99.90;;;;;;4995429;28;20508;-60
2021/09/07 01:35:11;;;;;;;10.33;8.10;;;16.10;99.90;;;;;;4995703;28;20516;-60
2021/09/07 01:37:39;;;;;;;9.73;8.27;;;16.10;99.90;;;;;;4995740;28;20450;-60
2021/09/07 01:40:10;;;;;;;11.73;8.07;;;16.10;99.90;;;;;;4995400;28;20540;-61
2021/09/07 01:42:38;;;;;;;14.90;9.10;;;16.00;99.90;;;;;;4995325;28;20508;-60
2021/09/07 01:45:08;;;;;;;10.50;8.33;;;16.00;99.90;;;;;;4995450;28;20817;-60
2021/09/07 01:47:38;;;;;;;13.90;9.10;;;16.00;99.90;;;;;;4994966;28;20508;-60
2021/09/07 01:50:09;;;;;;;11.63;9.20;;;15.90;99.90;;;;;;4995487;28;20497;-60
2021/09/07 01:52:36;;;;;;;14.10;8.90;;;15.90;99.90;;;;;;4995425;28;20450;-60
2021/09/07 01:55:07;;;;;;;15.00;10.40;;;15.80;99.90;;;;;;4995746;28;20450;-60
2021/09/07 01:57:34;;;;;;;13.00;9.17;;;15.60;99.90;;;;;;4995338;28;20458;-60
2021/09/07 02:00:02;;;;;;;11.40;8.90;;;15.50;99.90;;;;;;4994835;28;20520;-60
2021/09/07 02:02:29;;;;;;;12.23;9.00;;;15.50;99.90;;;;;;4994783;28;20508;-60
2021/09/07 02:04:56;;;;;;;12.13;9.10;;;15.50;99.90;;;;;;4994811;28;20524;-60
2021/09/07 02:07:23;;;;;;;16.23;10.07;;;15.50;99.90;;;;;;4994631;28;20524;-60
2021/09/07 02:09:51;;;;;;;12.40;9.43;;;15.50;99.90;;;;;;4994964;28;20493;-60
2021/09/07 02:12:18;;;;;;;13.23;8.87;;;15.50;99.90;;;;;;4994059;28;20450;-60
2021/09/07 02:14:45;;;;;;;13.13;9.80;;;15.40;99.90;;;;;;4994932;28;20549;-60
2021/09/07 02:17:13;;;;;;;12.23;9.20;;;15.40;99.90;;;;;;4994725;28;20509;-60
2021/09/07 02:19:40;;;;;;;11.43;8.00;;;15.50;99.90;;;;;;4994419;28;20524;-60
2021/09/07 02:22:07;;;;;;;16.13;9.47;;;15.50;99.90;;;;;;4994712;28;20454;-61
2021/09/07 02:24:34;;;;;;;13.97;10.10;;;15.40;99.90;;;;;;4994065;28;20513;-60
2021/09/07 02:27:01;;;;;;;12.23;9.00;;;15.40;99.90;;;;;;4993860;28;22571;-60
2021/09/07 02:29:28;;;;;;;10.80;8.10;;;15.40;99.90;;;;;;4994260;28;20988;-60
2021/09/07 02:31:55;;;;;;;10.77;8.60;;;15.40;99.90;;;;;;4993946;28;20458;-60
2021/09/07 02:34:24;;;;;;;13.17;9.17;;;15.40;99.90;;;;;;4993529;28;20517;-60
2021/09/07 02:36:50;;;;;;;13.33;9.23;;;15.30;99.90;;;;;;4994710;28;20450;-60
2021/09/07 02:39:17;;;;;;;16.07;9.67;;;15.30;99.90;;;;;;4994770;28;20500;-60
2021/09/07 02:41:44;;;;;;;12.30;9.20;;;15.30;99.90;;;;;;4994144;28;20455;-60
2021/09/07 02:44:12;;;;;;;13.50;9.13;;;15.30;99.90;;;;;;4993381;28;20509;-61
2021/09/07 02:46:39;;;;;;;11.50;8.23;;;15.30;99.90;;;;;;4994720;28;20454;-60
2021/09/07 02:49:06;;;;;;;14.00;9.47;;;15.30;99.90;;;;;;4989313;28;20830;-60
2021/09/07 02:51:34;;;;;;;12.50;9.27;;;15.20;99.90;;;;;;4992712;28;20489;-60
2021/09/07 02:54:01;;;;;;;12.23;8.70;;;15.20;99.90;;;;;;4991652;28;20455;-60
2021/09/07 02:56:28;;;;;;;15.20;9.60;;;15.20;99.90;;;;;;4992730;28;21010;-60
2021/09/07 02:58:55;;;;;;;17.00;9.20;;;15.20;99.90;;;;;;4993847;28;20450;-60
2021/09/07 03:01:22;;;;;;;12.93;8.60;;;15.20;99.90;;;;;;4993373;28;20466;-60
2021/09/07 03:03:49;;;;;;;10.73;8.27;;;15.20;99.90;;;;;;4993341;28;21190;-60
2021/09/07 03:06:17;;;;;;;12.63;8.03;;;15.20;99.90;;;;;;4993734;28;20446;-60
2021/09/07 03:08:45;;;;;;;12.57;9.53;;;15.20;99.90;;;;;;4993687;28;20537;-60
2021/09/07 03:11:12;;;;;;;13.33;8.83;;;15.20;99.90;;;;;;4993245;28;20482;-60
2021/09/07 03:13:40;;;;;;;12.03;8.80;;;15.10;99.90;;;;;;4993151;28;20457;-60
2021/09/07 03:16:07;;;;;;;11.83;9.00;;;15.10;99.90;;;;;;4993401;28;20954;-60
2021/09/07 03:18:34;;;;;;;11.67;8.43;;;15.10;99.90;;;;;;4993640;28;20451;-60
2021/09/07 03:21:01;;;;;;;10.47;8.13;;;15.10;99.90;;;;;;4993100;28;20810;-60
2021/09/07 03:23:28;;;;;;;15.33;9.20;;;15.10;99.90;;;;;;4992960;28;20450;-61
2021/09/07 03:25:57;;;;;;;12.73;8.90;;;15.10;99.90;;;;;;4989126;28;20454;-60
2021/09/07 03:28:24;;;;;;;10.63;9.10;;;15.10;99.90;;;;;;4993558;28;20469;-60
2021/09/07 03:30:52;;;;;;;11.90;9.00;;;15.10;99.90;;;;;;4991743;28;20493;-60
2021/09/07 03:33:19;;;;;;;13.30;9.03;;;15.00;99.90;;;;;;4992790;28;20445;-60
2021/09/07 03:35:46;;;;;;;12.13;8.87;;;15.00;99.90;;;;;;4991905;28;20446;-60
2021/09/07 03:38:13;;;;;;;12.50;9.23;;;14.90;99.90;;;;;;4993118;28;20446;-60
2021/09/07 03:40:40;;;;;;;14.00;10.03;;;14.90;99.90;;;;;;4992737;28;20477;-60
2021/09/07 03:43:09;;;;;;;16.20;9.20;;;14.80;99.90;;;;;;4992514;28;20450;-60
2021/09/07 03:45:36;;;;;;;16.27;9.50;;;14.90;99.90;;;;;;4989348;28;20533;-60
2021/09/07 03:48:03;;;;;;;11.73;9.13;;;14.90;99.90;;;;;;4991974;28;20450;-61
2021/09/07 03:50:30;;;;;;;11.93;9.17;;;14.80;99.90;;;;;;4991707;28;20517;-60
2021/09/07 03:52:57;;;;;;;13.93;10.50;;;14.80;99.90;;;;;;4991783;28;20868;-60
2021/09/07 03:55:24;;;;;;;14.53;10.07;;;14.80;99.90;;;;;;4989206;28;20998;-60
2021/09/07 03:57:51;;;;;;;13.90;9.50;;;14.90;99.90;;;;;;4991799;28;20451;-60
2021/09/07 04:00:20;;;;;;;12.60;9.20;;;14.80;99.90;;;;;;4991550;28;20545;-60
2021/09/07 04:02:47;;;;;;;13.00;10.13;;;14.80;99.90;;;;;;4991760;28;20662;-60
2021/09/07 04:05:15;;;;;;;12.43;10.03;;;14.80;99.90;;;;;;4991272;28;20450;-59
2021/09/07 04:07:42;;;;;;;13.10;9.80;;;14.70;99.90;;;;;;4991984;28;20443;-60
2021/09/07 04:10:10;;;;;;;15.10;9.60;;;14.60;99.90;;;;;;4991759;28;20494;-60
2021/09/07 04:12:37;;;;;;;11.60;8.83;;;14.60;99.90;;;;;;4992536;28;20520;-60
2021/09/07 04:15:05;;;;;;;12.43;9.17;;;14.60;99.90;;;;;;4992531;28;20459;-60
2021/09/07 04:17:34;;;;;;;14.00;9.90;;;14.60;99.90;;;;;;4992576;28;20555;-60
2021/09/07 04:20:01;;;;;;;10.63;8.40;;;14.60;99.90;;;;;;4992319;28;20524;-60
2021/09/07 04:22:28;;;;;;;11.30;9.20;;;14.50;99.90;;;;;;4992839;28;20451;-60
2021/09/07 04:24:55;;;;;;;12.40;9.27;;;14.70;99.90;;;;;;4991302;28;20443;-60
2021/09/07 04:27:22;;;;;;;15.80;9.87;;;14.70;99.90;;;;;;4992727;28;20443;-60
2021/09/07 04:29:49;;;;;;;12.73;10.27;;;14.60;99.90;;;;;;4992212;28;20486;-60
2021/09/07 04:32:16;;;;;;;11.13;8.97;;;14.70;99.90;;;;;;4992892;28;20458;-63
2021/09/07 04:34:44;;;;;;;12.13;9.07;;;14.60;99.90;;;;;;4987869;28;20910;-60
2021/09/07 04:37:11;;;;;;;12.57;9.47;;;14.70;99.90;;;;;;4973304;28;20510;-60
2021/09/07 04:39:38;;;;;;;15.97;9.33;;;14.70;99.90;;;;;;4980073;28;20921;-62
2021/09/07 04:42:05;;;;;;;11.40;9.47;;;14.60;99.90;;;;;;4989982;28;20516;-60
2021/09/07 04:44:32;;;;;;;14.80;9.67;;;14.70;99.90;;;;;;4991785;28;20525;-59
2021/09/07 04:47:00;;;;;;;11.27;8.73;;;14.60;99.90;;;;;;4989890;28;20541;-60
2021/09/07 04:49:27;;;;;;;14.00;10.93;;;14.60;99.90;;;;;;4992581;28;20470;-59
2021/09/07 04:51:56;;;;;;;13.13;9.53;;;14.50;99.90;;;;;;4992907;28;20509;-61
2021/09/07 04:54:23;;;;;;;16.13;11.70;;;14.40;99.90;;;;;;4991967;28;20944;-60
2021/09/07 04:56:51;;;;;;;16.20;10.13;;;14.40;99.90;;;;;;4991995;28;20490;-61
2021/09/07 04:59:18;;;;;;;16.30;10.30;;;14.30;99.90;;;;;;4990931;28;20964;-59
2021/09/07 05:01:45;;;;;;;13.73;10.77;;;14.30;99.90;;;;;;4989731;28;20517;-59
2021/09/07 05:04:13;;;;;;;14.80;10.00;;;14.20;99.90;;;;;;4990645;28;20549;-61
2021/09/07 05:06:40;;;;;;;16.27;10.13;;;14.40;99.90;;;;;;4991629;28;20525;-59
2021/09/07 05:09:08;;;;;;;13.60;9.67;;;14.40;99.90;;;;;;4991389;28;20458;-60
2021/09/07 05:11:35;;;;;;;16.57;11.23;;;14.40;99.90;;;;;;4991373;28;21012;-59
2021/09/07 05:14:02;;;;;;;16.33;10.60;;;14.30;99.90;;;;;;4991695;28;20459;-60
2021/09/07 05:16:29;;;;;;;14.43;9.90;;;14.40;99.90;;;;;;4991108;28;20462;-59
2021/09/07 05:18:57;;;;;;;15.20;9.57;;;14.50;99.90;;;;;;4990640;28;20450;-60
2021/09/07 05:21:24;;;;;;;15.10;10.27;;;14.60;99.90;;;;;;4990562;28;20471;-59
2021/09/07 05:23:51;;;;;;;17.03;11.00;;;14.70;99.90;;;;;;4990468;28;20458;-60
2021/09/07 05:26:19;;;;;;;14.60;9.37;;;14.60;99.90;;;;;;4990745;28;20945;-60
2021/09/07 05:28:46;;;;;;;13.30;10.10;;;14.60;99.90;;;;;;4990705;28;20485;-59
2021/09/07 05:31:13;;;;;;;15.13;10.40;;;14.80;99.90;;;;;;4989509;28;20564;-59
2021/09/07 05:33:40;;;;;;;15.10;10.50;;;14.90;99.90;;;;;;4990456;28;20455;-59
2021/09/07 05:36:07;;;;;;;13.20;10.03;;;15.00;99.90;;;;;;4990586;28;20898;-60
2021/09/07 05:38:34;;;;;;;14.27;11.17;;;15.10;99.90;;;;;;4990737;28;20872;-59
2021/09/07 05:41:03;;;;;;;12.37;9.83;;;15.20;99.90;;;;;;4990079;28;20890;-61
2021/09/07 05:43:36;;;;;;;14.47;9.50;;;15.20;99.90;;;;;;4986876;28;20959;-60
2021/09/07 05:46:03;;;;;;;16.67;9.70;;;15.40;99.90;;;;;;4990243;28;20462;-59
2021/09/07 05:48:30;;;;;;;11.50;9.17;;;15.90;99.90;;;;;;4993633;28;20458;-60
2021/09/07 05:50:57;;;;;;;11.67;9.17;;;16.50;99.90;;;;;;4991626;28;20513;-60
2021/09/07 05:53:24;;;;;;;12.80;9.17;;;17.30;99.90;;;;;;4993653;28;20454;-60
2021/09/07 05:55:50;;;;;;;9.73;8.03;;;18.00;99.90;;;;;;4994678;28;20458;-59
2021/09/07 05:58:17;;;;;;;13.00;9.67;;;18.90;99.90;;;;;;4994983;28;20450;-61
2021/09/07 06:00:46;;;;;;;12.30;8.40;;;19.60;99.90;;;;;;4994902;28;20462;-60
2021/09/07 06:03:13;;;;;;;11.20;7.93;;;20.30;99.90;;;;;;4994183;28;20513;-59
2021/09/07 06:05:40;;;;;;;15.97;9.30;;;21.00;99.90;;;;;;4994232;28;20504;-61
2021/09/07 06:08:07;;;;;;;11.83;8.70;;;21.50;99.90;;;;;;4994503;28;20458;-60
2021/09/07 06:10:34;;;;;;;12.80;7.93;;;22.00;99.90;;;;;;4994206;28;20474;-61
2021/09/07 06:13:01;;;;;;;12.50;9.50;;;22.40;99.90;;;;;;4994840;28;20454;-60
2021/09/07 06:15:28;;;;;;;13.63;8.83;;;22.10;99.90;;;;;;4994562;28;20456;-61
2021/09/07 06:17:56;;;;;;;17.83;8.97;;;22.40;99.90;;;;;;4994072;28;20462;-61
2021/09/07 06:20:23;;;;;;;24.03;9.20;;;22.20;99.90;;;;;;4993937;28;20907;-61
2021/09/07 06:22:52;;;;;;;16.47;8.33;;;21.90;99.90;;;;;;4993791;28;20474;-62
2021/09/07 06:25:19;;;;;;;11.03;7.97;;;21.70;99.90;;;;;;4993564;28;20455;-62
2021/09/07 06:27:46;;;;;;;16.60;9.13;;;21.30;99.90;;;;;;4993710;28;20512;-61
2021/09/07 06:30:16;;;;;;;10.53;7.70;;;21.10;99.90;;;;;;4993862;28;20481;-61
2021/09/07 06:32:43;;;;;;;15.50;8.10;;;21.10;99.90;;;;;;4994533;28;20558;-61
2021/09/07 06:35:13;;;;;;;11.67;7.60;;;21.00;99.90;;;;;;4994128;28;20450;-61
2021/09/07 06:37:42;;;;;;;12.10;7.23;;;21.40;99.90;;;;;;4994234;28;20887;-62
2021/09/07 06:40:11;;;;;;;9.33;8.13;;;21.90;99.90;;;;;;4992933;28;20470;-61
2021/09/07 06:42:38;;;;;;;16.33;8.00;;;21.50;99.90;;;;;;4991595;28;20449;-62
2021/09/07 06:45:06;;;;;;;9.70;8.27;;;22.00;99.90;;;;;;4992480;28;20513;-60
2021/09/07 06:47:33;;;;;;;12.40;9.00;;;22.20;99.90;;;;;;4993979;28;20451;-62
2021/09/07 06:50:01;;;;;;;12.20;8.40;;;22.20;99.90;;;;;;4994137;28;20466;-61
2021/09/07 06:52:29;;;;;;;9.77;7.60;;;22.30;99.90;;;;;;4993898;28;21026;-61
2021/09/07 06:54:56;;;;;;;9.43;7.97;;;22.60;99.90;;;;;;4994041;28;20497;-61
2021/09/07 06:57:23;;;;;;;15.23;9.67;;;23.10;99.90;;;;;;4991035;28;20478;-61
2021/09/07 06:59:51;;;;;;;12.93;9.70;;;23.40;99.90;;;;;;4992102;28;20484;-62
2021/09/07 07:02:17;;;;;;;11.83;9.50;;;23.50;99.90;;;;;;4993873;28;20457;-61
2021/09/07 07:04:45;;;;;;;10.87;8.43;;;23.40;99.90;;;;;;4993925;28;20457;-62
2021/09/07 07:07:12;;;;;;;11.20;9.00;;;23.20;99.90;;;;;;4993622;28;20538;-61
2021/09/07 07:09:40;;;;;;;11.30;9.37;;;23.60;99.90;;;;;;4993882;28;20553;-62
2021/09/07 07:12:08;;;;;;;14.43;10.10;;;24.10;99.90;;;;;;4993718;28;20908;-61
2021/09/07 07:14:35;;;;;;;12.10;9.53;;;24.60;99.90;;;;;;4993855;28;20450;-62
2021/09/07 07:17:02;;;;;;;11.23;8.43;;;25.00;99.90;;;;;;4993400;28;20451;-60
2021/09/07 07:19:29;;;;;;;13.67;9.30;;;25.70;99.90;;;;;;4993902;28;20528;-62
2021/09/07 07:21:56;;;;;;;10.80;9.70;;;26.10;99.90;;;;;;4993532;28;20504;-61
2021/09/07 07:24:23;;;;;;;13.13;9.60;;;25.00;99.90;;;;;;4992176;28;20500;-62
2021/09/07 07:26:51;;;;;;;11.07;9.13;;;25.00;99.90;;;;;;4992196;28;20873;-62
2021/09/07 07:29:18;;;;;;;10.50;9.23;;;24.60;99.90;;;;;;4988280;28;20940;-62
2021/09/07 07:31:45;;;;;;;12.03;10.23;;;24.30;99.90;;;;;;4991823;28;20482;-61
2021/09/07 07:34:12;;;;;;;16.00;10.70;;;24.30;99.90;;;;;;4992079;28;20801;-62
2021/09/07 07:36:39;;;;;;;12.83;10.67;;;24.50;99.90;;;;;;4991653;28;20457;-63
2021/09/07 07:39:06;;;;;;;15.70;11.97;;;25.00;99.90;;;;;;4992055;28;20450;-62
2021/09/07 07:41:33;;;;;;;12.90;11.13;;;25.30;99.90;;;;;;4991857;28;20451;-62
2021/09/07 07:44:02;;;;;;;16.37;10.63;;;25.80;99.90;;;;;;4991718;28;20446;-63
2021/09/07 07:46:29;;;;;;;13.13;9.87;;;26.30;99.90;;;;;;4992734;28;20517;-61
2021/09/07 07:48:55;;;;;;;11.67;9.67;;;26.40;99.90;;;;;;4992961;28;20454;-63
2021/09/07 07:51:23;;;;;;;14.50;8.40;;;25.80;99.90;;;;;;4990599;28;20540;-62
2021/09/07 07:53:50;;;;;;;12.67;9.00;;;25.00;99.90;;;;;;4992871;28;20485;-62
2021/09/07 07:56:17;;;;;;;11.97;9.83;;;24.80;99.90;;;;;;4992443;28;20458;-61
2021/09/07 07:58:43;;;;;;;9.43;8.43;;;24.10;99.90;;;;;;4992290;28;20454;-63
2021/09/07 08:01:12;;;;;;;10.23;9.07;;;23.40;99.90;;;;;;4992646;28;20466;-62
2021/09/07 08:03:40;;;;;;;10.97;9.47;;;23.30;99.90;;;;;;4992984;28;20513;-62
2021/09/07 08:06:07;;;;;;;9.57;8.23;;;23.50;99.90;;;;;;4992504;28;20550;-61
2021/09/07 08:08:34;;;;;;;8.70;7.27;;;23.80;99.90;;;;;;4992112;28;20485;-62
2021/09/07 08:11:01;;;;;;;9.33;7.40;;;24.20;99.90;;;;;;4990599;28;20513;-62
2021/09/07 08:13:29;;;;;;;9.93;6.83;;;24.50;99.90;;;;;;4989847;28;20450;-62
2021/09/07 08:15:56;;;;;;;7.80;7.00;;;24.40;99.90;;;;;;4991032;28;21014;-62
2021/09/07 08:18:25;;;;;;;10.13;7.27;;;24.20;99.90;;;;;;4991243;28;20517;-61
2021/09/07 08:20:52;;;;;;;8.70;7.53;;;23.90;99.90;;;;;;4988972;28;20475;-62
2021/09/07 08:23:19;;;;;;;9.47;7.50;;;23.80;99.90;;;;;;4992156;28;20497;-62
2021/09/07 08:25:46;;;;;;;12.20;7.40;;;23.50;99.90;;;;;;4991715;28;20446;-62
2021/09/07 08:28:13;;;;;;;10.03;6.50;;;23.50;99.90;;;;;;4992215;28;20454;-61
2021/09/07 08:30:40;;;;;;;9.10;7.60;;;23.80;99.90;;;;;;4991571;28;21157;-61
2021/09/07 08:33:13;;;;;;;10.00;8.33;;;24.00;99.90;;;;;;4991916;28;20540;-62
2021/09/07 08:35:42;;;;;;;7.80;7.00;;;24.20;99.90;;;;;;4991829;28;20552;-61
2021/09/07 08:38:09;;;;;;;10.03;7.27;;;24.70;99.90;;;;;;4989035;28;20544;-63
2021/09/07 08:40:36;;;;;;;8.57;6.83;;;25.40;99.90;;;;;;4991850;28;20841;-61
2021/09/07 08:43:04;;;;;;;7.50;5.93;;;26.00;99.90;;;;;;4992013;28;20505;-62
2021/09/07 08:45:31;;;;;;;7.70;6.90;;;26.10;99.90;;;;;;4992355;28;20450;-62
2021/09/07 08:47:59;;;;;;;7.13;6.43;;;26.40;99.90;;;;;;4992379;28;20443;-62
2021/09/07 08:50:27;;;;;;;8.63;7.47;;;26.00;99.90;;;;;;4991632;28;20470;-61
2021/09/07 08:52:58;;;;;;;9.43;6.90;;;25.60;99.90;;;;;;4992020;28;20559;-61
2021/09/07 08:55:26;;;;;;;8.60;6.90;;;25.00;99.90;;;;;;4991947;28;20542;-62
2021/09/07 08:57:53;;;;;;;7.13;6.43;;;24.80;99.90;;;;;;4992025;28;20446;-62
2021/09/07 09:00:27;;;;;;;8.90;6.23;;;25.30;99.90;;;;;;4991904;28;20525;-62
2021/09/07 09:02:54;;;;;;;9.47;7.50;;;25.90;99.90;;;;;;4992340;28;20537;-62
2021/09/07 09:05:27;;;;;;;11.90;7.50;;;26.00;99.90;;;;;;4992324;28;20461;-62
2021/09/07 09:07:54;;;;;;;9.20;7.50;;;25.60;99.90;;;;;;4992054;28;20549;-62
2021/09/07 09:10:24;;;;;;;8.07;6.63;;;26.10;99.90;;;;;;4991374;28;20912;-62
2021/09/07 09:13:05;;;;;;;6.40;5.60;;;25.90;99.90;;;;;;4991986;28;20907;-61
2021/09/07 09:15:32;;;;;;;7.37;5.77;;;25.40;99.90;;;;;;4991924;28;20451;-61
2021/09/07 09:18:06;;;;;;;7.70;5.93;;;24.70;99.90;;;;;;4992058;28;20447;-62
2021/09/07 09:20:33;;;;;;;8.43;6.40;;;24.40;99.90;;;;;;4992338;28;20509;-61
2021/09/07 09:23:01;;;;;;;7.50;6.03;;;24.30;99.90;;;;;;4996256;28;20482;-62
2021/09/07 09:25:32;;;;;;;6.07;5.23;;;24.20;99.90;;;;;;4995705;28;20873;-62
2021/09/07 09:28:26;;;;;;;8.80;6.10;;;23.90;99.90;;;;;;4976460;28;20474;-62
2021/09/07 09:30:55;;;;;;;12.43;7.30;;;24.50;99.90;;;;;;4952421;28;20486;-63
2021/09/07 09:33:24;;;;;;;9.17;7.60;;;24.90;99.90;;;;;;4976556;28;20530;-62
2021/09/07 09:35:55;;;;;;;11.77;7.23;;;24.80;99.90;;;;;;4979410;28;20455;-61
2021/09/07 09:38:24;;;;;;;11.47;8.40;;;25.00;99.90;;;;;;4995720;28;20516;-63
2021/09/07 09:41:00;;;;;;;11.60;7.67;;;25.20;99.90;;;;;;4994278;28;20474;-62
2021/09/07 09:43:32;;;;;;;8.03;7.23;;;25.80;99.90;;;;;;4994381;28;20886;-63
2021/09/07 09:46:17;;;;;;;9.87;7.90;;;26.10;99.90;;;;;;4995154;28;20454;-62
2021/09/07 09:48:44;;;;;;;13.50;7.70;;;25.10;99.90;;;;;;4995697;28;20488;-62
2021/09/07 09:51:16;;;;;;;13.03;9.13;;;24.60;99.90;;;;;;4995034;28;20478;-61
2021/09/07 09:53:45;;;;;;;15.47;10.40;;;24.60;99.90;;;;;;4995216;28;20573;-61
2021/09/07 09:56:14;;;;;;;9.97;8.47;;;24.50;99.90;;;;;;4994637;28;20516;-62
2021/09/07 09:58:42;;;;;;;11.90;9.33;;;25.30;99.90;;;;;;4995577;28;20454;-62
2021/09/07 10:01:10;;;;;;;14.60;10.40;;;25.50;99.90;;;;;;4994307;28;20544;-62
2021/09/07 10:03:40;;;;;;;16.60;10.27;;;26.00;99.90;;;;;;4994894;28;20450;-62
2021/09/07 10:06:07;;;;;;;12.57;10.60;;;26.00;99.90;;;;;;4995003;28;20509;-62
2021/09/07 10:08:41;;;;;;;13.37;10.87;;;26.30;99.90;;;;;;4995223;28;20454;-62
2021/09/07 10:11:12;;;;;;;17.97;10.77;;;25.80;99.90;;;;;;4993533;28;20552;-62
2021/09/07 10:13:44;;;;;;;12.80;10.80;;;25.80;99.90;;;;;;4994808;28;20552;-62
2021/09/07 10:16:13;;;;;;;14.90;10.77;;;25.10;99.90;;;;;;4995200;28;20454;-61
2021/09/07 10:18:48;;;;;;;15.40;11.70;;;25.00;99.90;;;;;;4995002;28;21019;-62
2021/09/07 10:24:53;;;;;;;16.30;12.67;;;25.60;99.90;;;;;;4994998;28;20426;-62
2021/09/07 10:27:21;;;;;;;14.03;11.60;;;25.40;99.90;;;;;;4994316;28;21023;-62
2021/09/07 10:29:50;;;;;;;15.90;12.63;;;25.40;99.90;;;;;;4994776;28;20902;-62
2021/09/07 10:32:31;;;;;;;17.60;12.90;;;25.50;99.90;;;;;;4993196;28;20482;-62
2021/09/07 10:35:15;;;;;;;19.23;12.53;;;24.70;99.90;;;;;;4994649;28;20454;-61
2021/09/07 10:38:08;;;;;;;15.73;11.80;;;24.20;99.90;;;;;;4994690;28;21032;-62
2021/09/07 10:40:50;;;;;;;18.07;12.20;;;25.10;99.90;;;;;;4993498;28;20482;-62
2021/09/07 10:43:54;;;;;;;15.27;12.27;;;25.50;99.90;;;;;;4987960;28;20952;-61
2021/09/07 10:46:44;;;;;;;15.87;12.70;;;24.60;99.90;;;;;;4971755;28;20500;-61
2021/09/07 10:49:40;;;;;;;16.90;13.73;;;23.90;99.90;;;;;;4992747;28;20880;-61
2021/09/07 10:52:18;;;;;;;15.33;12.17;;;23.20;99.90;;;;;;4993783;28;20450;-61
2021/09/07 10:54:50;;;;;;;16.53;12.80;;;23.60;99.90;;;;;;4984339;28;20891;-61
2021/09/07 10:57:51;;;;;;;16.53;12.70;;;24.10;99.90;;;;;;4994411;28;20508;-61
2021/09/07 11:00:38;;;;;;;17.33;12.83;;;24.00;99.90;;;;;;4994060;28;20470;-59
2021/09/07 11:03:09;;;;;;;15.93;12.67;;;23.40;99.90;;;;;;4993757;28;20450;-61
2021/09/07 11:05:47;;;;;;;16.67;12.60;;;23.20;99.90;;;;;;4994257;28;20446;-60
2021/09/07 11:08:19;;;;;;;17.90;12.73;;;23.20;99.90;;;;;;4989833;28;20502;-60
2021/09/07 11:10:49;;;;;;;17.93;13.33;;;23.50;99.90;;;;;;4991383;28;20520;-60
2021/09/07 11:13:22;;;;;;;16.30;12.30;;;22.80;99.90;;;;;;4993805;28;21043;-60
2021/09/07 11:15:49;;;;;;;17.10;13.30;;;23.10;99.90;;;;;;4994207;28;20504;-60
2021/09/07 11:18:23;;;;;;;18.40;13.50;;;22.70;99.90;;;;;;4993594;28;20458;-61
2021/09/07 11:20:51;;;;;;;16.87;13.03;;;22.80;99.90;;;;;;4993710;28;20819;-60
2021/09/07 11:23:20;;;;;;;17.27;12.10;;;22.70;99.90;;;;;;4993529;28;20493;-60
2021/09/07 11:25:48;;;;;;;16.97;12.90;;;22.70;99.90;;;;;;4993435;28;20458;-60
2021/09/07 11:28:17;;;;;;;17.40;13.43;;;22.80;99.90;;;;;;4982962;28;20501;-61
2021/09/07 11:30:47;;;;;;;19.37;13.10;;;22.60;99.90;;;;;;4993366;28;20536;-60
2021/09/07 11:33:15;;;;;;;17.00;13.00;;;22.50;99.90;;;;;;4976986;28;20847;-60
2021/09/07 11:35:45;;;;;;;15.73;12.03;;;22.70;99.90;;;;;;4974303;28;20514;-61
2021/09/07 11:38:14;;;;;;;12.47;10.50;;;22.70;99.90;;;;;;4977491;28;20462;-61
2021/09/07 11:40:45;;;;;;;13.93;11.80;;;22.80;99.90;;;;;;4993175;28;20474;-61
2021/09/07 11:43:13;;;;;;;12.30;9.90;;;22.80;99.90;;;;;;4993366;28;20505;-60
2021/09/07 11:45:41;;;;;;;11.53;9.40;;;23.00;99.90;;;;;;4990424;28;20446;-60
2021/09/07 11:48:10;;;;;;;9.57;8.30;;;22.70;99.90;;;;;;4991550;28;20454;-60
2021/09/07 11:50:39;;;;;;;9.77;8.00;;;23.10;99.90;;;;;;4991481;28;20549;-61
2021/09/07 11:53:10;;;;;;;11.00;9.03;;;23.70;99.90;;;;;;4991590;28;21015;-61
2021/09/07 11:55:43;;;;;;;9.03;8.10;;;23.60;99.90;;;;;;4991591;28;20456;-61
2021/09/07 11:58:11;;;;;;;9.27;7.97;;;23.60;99.90;;;;;;4989374;28;20453;-61
2021/09/07 12:00:38;;;;;;;9.20;8.20;;;23.40;99.90;;;;;;4991347;28;21083;-61
2021/09/07 12:03:15;;;;;;;9.77;8.37;;;23.30;99.90;;;;;;4991648;28;20447;-60
2021/09/07 12:05:53;;;;;;;9.77;8.77;;;23.30;99.90;;;;;;4989250;28;20521;-60
2021/09/07 12:08:22;;;;;;;10.93;7.10;;;23.30;99.90;;;;;;4991269;28;20509;-61
2021/09/07 12:10:54;;;;;;;7.50;6.30;;;23.50;99.90;;;;;;4990773;28;20470;-60
2021/09/07 12:13:22;;;;;;;7.20;6.30;;;23.30;99.90;;;;;;4991481;28;20560;-60
2021/09/07 12:15:49;;;;;;;7.00;6.13;;;23.30;99.90;;;;;;4991477;28;20944;-61
2021/09/07 12:18:40;;;;;;;7.73;6.87;;;23.40;99.90;;;;;;4991104;28;20463;-61
2021/09/07 12:21:16;;;;;;;8.10;6.70;;;23.50;99.90;;;;;;4990940;28;20466;-61
2021/09/07 12:23:47;;;;;;;9.03;6.77;;;23.60;99.90;;;;;;4988270;28;20442;-60
2021/09/07 12:26:15;;;;;;;9.73;7.30;;;23.80;99.90;;;;;;4987956;28;20983;-61
2021/09/07 12:28:44;;;;;;;12.87;7.33;;;23.90;99.90;;;;;;4991092;28;20883;-60
2021/09/07 12:31:16;;;;;;;10.93;7.10;;;23.90;99.90;;;;;;4990656;28;20478;-60
2021/09/07 12:33:47;;;;;;;11.50;7.70;;;23.50;99.90;;;;;;4991479;28;20911;-61
2021/09/07 12:36:14;;;;;;;12.10;6.90;;;23.40;99.90;;;;;;4991132;28;20458;-61
2021/09/07 12:38:41;;;;;;;8.97;7.53;;;23.40;99.90;;;;;;4992347;28;20462;-60
2021/09/07 12:41:12;;;;;;;8.63;7.73;;;23.60;99.90;;;;;;4991623;28;20474;-61
2021/09/07 12:43:42;;;;;;;8.03;6.80;;;23.70;99.90;;;;;;4991718;28;20446;-61
2021/09/07 12:46:10;;;;;;;9.20;7.33;;;23.80;99.90;;;;;;4992084;28;20458;-61
2021/09/07 12:48:39;;;;;;;7.87;7.07;;;23.80;99.90;;;;;;4992054;28;20810;-60